sensor_id;sensor_type;location;lat;lon;timestamp;P1;durP1;ratioP1;P2;durP2;ratioP2
13032;SDS011;6583;42.632;23.298;2022-08-11T00:00:04;5.07;;;4.68;;
13032;SDS011;6583;42.632;23.298;2022-08-11T00:02:34;5.50;;;5.00;;
13032;SDS011;6583;42.632;23.298;2022-08-11T00:05:08;5.45;;;5.00;;
13032;SDS011;6583;42.632;23.298;2022-08-11T00:07:41;5.28;;;4.78;;
13032;SDS011;6583;42.632;23.298;2022-08-11T00:10:10;5.40;;;4.90;;
13032;SDS011;6583;42.632;23.298;2022-08-11T00:12:38;7.68;;;4.80;;
13032;SDS011;6583;42.632;23.298;2022-08-11T00:15:07;5.57;;;5.03;;
13032;SDS011;6583;42.632;23.298;2022-08-11T00:17:35;5.32;;;4.93;;
13032;SDS011;6583;42.632;23.298;2022-08-11T00:20:04;5.65;;;5.25;;
13032;SDS011;6583;42.632;23.298;2022-08-11T00:22:35;5.65;;;5.15;;
13032;SDS011;6583;42.632;23.298;2022-08-11T00:25:09;5.70;;;5.30;;
13032;SDS011;6583;42.632;23.298;2022-08-11T00:27:37;5.90;;;5.40;;
13032;SDS011;6583;42.632;23.298;2022-08-11T00:30:06;5.80;;;5.30;;
13032;SDS011;6583;42.632;23.298;2022-08-11T00:32:34;5.72;;;5.22;;
13032;SDS011;6583;42.632;23.298;2022-08-11T00:35:04;5.88;;;5.32;;
13032;SDS011;6583;42.632;23.298;2022-08-11T00:37:36;5.78;;;5.28;;
13032;SDS011;6583;42.632;23.298;2022-08-11T00:40:04;6.53;;;5.25;;
13032;SDS011;6583;42.632;23.298;2022-08-11T00:42:41;5.97;;;5.47;;
13032;SDS011;6583;42.632;23.298;2022-08-11T00:45:13;5.60;;;5.10;;
13032;SDS011;6583;42.632;23.298;2022-08-11T00:47:52;6.05;;;5.45;;
13032;SDS011;6583;42.632;23.298;2022-08-11T00:50:34;5.78;;;5.28;;
13032;SDS011;6583;42.632;23.298;2022-08-11T00:53:11;6.13;;;5.43;;
13032;SDS011;6583;42.632;23.298;2022-08-11T00:56:06;6.25;;;5.22;;
13032;SDS011;6583;42.632;23.298;2022-08-11T00:58:58;5.90;;;5.40;;
13032;SDS011;6583;42.632;23.298;2022-08-11T01:01:54;6.05;;;5.47;;
13032;SDS011;6583;42.632;23.298;2022-08-11T01:04:31;5.80;;;5.30;;
13032;SDS011;6583;42.632;23.298;2022-08-11T01:10:42;5.68;;;5.18;;
13032;SDS011;6583;42.632;23.298;2022-08-11T01:13:28;5.68;;;5.28;;
13032;SDS011;6583;42.632;23.298;2022-08-11T01:16:19;5.80;;;5.30;;
13032;SDS011;6583;42.632;23.298;2022-08-11T01:22:31;5.65;;;5.22;;
13032;SDS011;6583;42.632;23.298;2022-08-11T01:25:41;5.95;;;5.50;;
13032;SDS011;6583;42.632;23.298;2022-08-11T01:28:44;5.88;;;5.40;;
13032;SDS011;6583;42.632;23.298;2022-08-11T01:31:26;6.22;;;5.72;;
13032;SDS011;6583;42.632;23.298;2022-08-11T01:34:19;5.90;;;5.40;;
13032;SDS011;6583;42.632;23.298;2022-08-11T01:40:49;5.82;;;5.32;;
13032;SDS011;6583;42.632;23.298;2022-08-11T01:43:40;5.57;;;5.07;;
13032;SDS011;6583;42.632;23.298;2022-08-11T01:47:04;5.47;;;4.97;;
13032;SDS011;6583;42.632;23.298;2022-08-11T01:50:06;6.20;;;5.70;;
13032;SDS011;6583;42.632;23.298;2022-08-11T01:52:42;6.32;;;5.68;;
13032;SDS011;6583;42.632;23.298;2022-08-11T01:55:25;6.10;;;5.60;;
13032;SDS011;6583;42.632;23.298;2022-08-11T01:58:01;5.28;;;4.78;;
13032;SDS011;6583;42.632;23.298;2022-08-11T02:00:34;5.38;;;4.90;;
13032;SDS011;6583;42.632;23.298;2022-08-11T02:03:14;5.53;;;5.03;;
13032;SDS011;6583;42.632;23.298;2022-08-11T02:05:55;6.22;;;5.63;;
13032;SDS011;6583;42.632;23.298;2022-08-11T02:08:38;6.05;;;5.47;;
13032;SDS011;6583;42.632;23.298;2022-08-11T02:11:14;5.53;;;5.03;;
13032;SDS011;6583;42.632;23.298;2022-08-11T02:13:56;5.63;;;5.13;;
13032;SDS011;6583;42.632;23.298;2022-08-11T02:16:31;5.65;;;5.15;;
13032;SDS011;6583;42.632;23.298;2022-08-11T02:19:10;5.75;;;5.25;;
13032;SDS011;6583;42.632;23.298;2022-08-11T02:22:04;5.95;;;5.45;;
13032;SDS011;6583;42.632;23.298;2022-08-11T02:25:05;5.38;;;4.97;;
13032;SDS011;6583;42.632;23.298;2022-08-11T02:27:35;5.70;;;5.20;;
13032;SDS011;6583;42.632;23.298;2022-08-11T02:30:07;6.03;;;5.53;;
13032;SDS011;6583;42.632;23.298;2022-08-11T02:32:40;5.60;;;5.10;;
13032;SDS011;6583;42.632;23.298;2022-08-11T02:35:41;5.32;;;4.85;;
13032;SDS011;6583;42.632;23.298;2022-08-11T02:38:19;5.82;;;5.32;;
13032;SDS011;6583;42.632;23.298;2022-08-11T02:40:56;5.20;;;4.80;;
13032;SDS011;6583;42.632;23.298;2022-08-11T02:43:29;5.10;;;4.70;;
13032;SDS011;6583;42.632;23.298;2022-08-11T02:46:17;5.47;;;4.97;;
13032;SDS011;6583;42.632;23.298;2022-08-11T02:48:50;4.90;;;4.50;;
13032;SDS011;6583;42.632;23.298;2022-08-11T02:51:43;5.07;;;4.68;;
13032;SDS011;6583;42.632;23.298;2022-08-11T02:54:24;4.95;;;4.47;;
13032;SDS011;6583;42.632;23.298;2022-08-11T02:56:58;5.25;;;4.75;;
13032;SDS011;6583;42.632;23.298;2022-08-11T03:02:18;4.57;;;4.18;;
13032;SDS011;6583;42.632;23.298;2022-08-11T03:04:58;4.43;;;4.13;;
13032;SDS011;6583;42.632;23.298;2022-08-11T03:07:32;4.78;;;4.38;;
13032;SDS011;6583;42.632;23.298;2022-08-11T03:10:09;4.65;;;4.25;;
13032;SDS011;6583;42.632;23.298;2022-08-11T03:12:44;4.47;;;3.92;;
13032;SDS011;6583;42.632;23.298;2022-08-11T03:15:40;4.57;;;4.18;;
13032;SDS011;6583;42.632;23.298;2022-08-11T03:18:30;4.60;;;4.05;;
13032;SDS011;6583;42.632;23.298;2022-08-11T03:21:08;4.40;;;4.05;;
13032;SDS011;6583;42.632;23.298;2022-08-11T03:23:46;4.50;;;4.10;;
13032;SDS011;6583;42.632;23.298;2022-08-11T03:26:23;4.22;;;3.90;;
13032;SDS011;6583;42.632;23.298;2022-08-11T03:28:59;4.80;;;3.90;;
13032;SDS011;6583;42.632;23.298;2022-08-11T03:31:33;4.32;;;3.92;;
13032;SDS011;6583;42.632;23.298;2022-08-11T03:34:03;5.63;;;4.22;;
13032;SDS011;6583;42.632;23.298;2022-08-11T03:39:41;4.50;;;4.10;;
13032;SDS011;6583;42.632;23.298;2022-08-11T03:42:19;4.38;;;3.97;;
13032;SDS011;6583;42.632;23.298;2022-08-11T03:44:58;4.63;;;4.22;;
13032;SDS011;6583;42.632;23.298;2022-08-11T03:53:37;4.68;;;3.90;;
13032;SDS011;6583;42.632;23.298;2022-08-11T03:59:37;5.55;;;4.32;;
13032;SDS011;6583;42.632;23.298;2022-08-11T04:12:06;6.90;;;4.35;;
13032;SDS011;6583;42.632;23.298;2022-08-11T04:14:50;8.38;;;4.80;;
13032;SDS011;6583;42.632;23.298;2022-08-11T04:18:17;6.25;;;4.35;;
13032;SDS011;6583;42.632;23.298;2022-08-11T04:21:00;4.80;;;4.30;;
13032;SDS011;6583;42.632;23.298;2022-08-11T04:23:44;5.93;;;4.78;;
13032;SDS011;6583;42.632;23.298;2022-08-11T04:29:34;5.93;;;4.90;;
13032;SDS011;6583;42.632;23.298;2022-08-11T04:32:30;5.32;;;4.82;;
13032;SDS011;6583;42.632;23.298;2022-08-11T04:35:37;5.45;;;4.90;;
13032;SDS011;6583;42.632;23.298;2022-08-11T04:41:27;6.07;;;5.47;;
13032;SDS011;6583;42.632;23.298;2022-08-11T04:47:49;5.82;;;5.18;;
13032;SDS011;6583;42.632;23.298;2022-08-11T04:50:56;6.32;;;5.70;;
13032;SDS011;6583;42.632;23.298;2022-08-11T04:53:55;8.02;;;5.68;;
13032;SDS011;6583;42.632;23.298;2022-08-11T04:56:46;6.70;;;5.50;;
13032;SDS011;6583;42.632;23.298;2022-08-11T04:59:49;7.18;;;5.65;;
13032;SDS011;6583;42.632;23.298;2022-08-11T05:09:20;6.75;;;6.15;;
13032;SDS011;6583;42.632;23.298;2022-08-11T05:14:55;9.05;;;6.50;;
13032;SDS011;6583;42.632;23.298;2022-08-11T05:17:43;5.90;;;5.40;;
13032;SDS011;6583;42.632;23.298;2022-08-11T05:20:31;6.00;;;5.32;;
13032;SDS011;6583;42.632;23.298;2022-08-11T05:23:28;7.85;;;5.88;;
13032;SDS011;6583;42.632;23.298;2022-08-11T05:26:16;7.00;;;6.40;;
13032;SDS011;6583;42.632;23.298;2022-08-11T05:29:04;7.82;;;6.53;;
13032;SDS011;6583;42.632;23.298;2022-08-11T05:32:09;6.90;;;6.30;;
13032;SDS011;6583;42.632;23.298;2022-08-11T05:34:56;8.05;;;6.90;;
13032;SDS011;6583;42.632;23.298;2022-08-11T05:37:31;7.90;;;7.10;;
13032;SDS011;6583;42.632;23.298;2022-08-11T05:40:05;7.55;;;6.80;;
13032;SDS011;6583;42.632;23.298;2022-08-11T05:42:53;7.32;;;6.57;;
13032;SDS011;6583;42.632;23.298;2022-08-11T05:45:40;8.02;;;6.55;;
13032;SDS011;6583;42.632;23.298;2022-08-11T05:48:28;7.00;;;6.30;;
13032;SDS011;6583;42.632;23.298;2022-08-11T05:51:14;10.60;;;6.68;;
13032;SDS011;6583;42.632;23.298;2022-08-11T05:53:59;8.20;;;7.40;;
13032;SDS011;6583;42.632;23.298;2022-08-11T05:56:48;8.43;;;7.55;;
13032;SDS011;6583;42.632;23.298;2022-08-11T05:59:21;8.90;;;7.45;;
13032;SDS011;6583;42.632;23.298;2022-08-11T06:01:49;8.10;;;7.30;;
13032;SDS011;6583;42.632;23.298;2022-08-11T06:04:18;8.35;;;7.57;;
13032;SDS011;6583;42.632;23.298;2022-08-11T06:06:50;8.20;;;7.40;;
13032;SDS011;6583;42.632;23.298;2022-08-11T06:09:24;7.63;;;6.72;;
13032;SDS011;6583;42.632;23.298;2022-08-11T06:11:53;7.55;;;6.85;;
13032;SDS011;6583;42.632;23.298;2022-08-11T06:14:25;8.15;;;7.28;;
13032;SDS011;6583;42.632;23.298;2022-08-11T06:16:54;8.02;;;7.18;;
13032;SDS011;6583;42.632;23.298;2022-08-11T06:19:30;7.57;;;6.88;;
13032;SDS011;6583;42.632;23.298;2022-08-11T06:22:00;7.53;;;6.80;;
13032;SDS011;6583;42.632;23.298;2022-08-11T06:24:28;6.53;;;5.93;;
13032;SDS011;6583;42.632;23.298;2022-08-11T06:26:56;6.90;;;6.30;;
13032;SDS011;6583;42.632;23.298;2022-08-11T06:29:25;6.68;;;5.97;;
13032;SDS011;6583;42.632;23.298;2022-08-11T06:31:54;6.28;;;5.60;;
13032;SDS011;6583;42.632;23.298;2022-08-11T06:34:27;5.65;;;5.15;;
13032;SDS011;6583;42.632;23.298;2022-08-11T06:37:04;5.57;;;5.07;;
13032;SDS011;6583;42.632;23.298;2022-08-11T06:39:43;7.05;;;4.90;;
13032;SDS011;6583;42.632;23.298;2022-08-11T06:42:15;5.88;;;5.38;;
13032;SDS011;6583;42.632;23.298;2022-08-11T06:44:56;5.68;;;5.13;;
13032;SDS011;6583;42.632;23.298;2022-08-11T06:47:36;5.38;;;4.90;;
13032;SDS011;6583;42.632;23.298;2022-08-11T06:50:15;4.90;;;4.50;;
13032;SDS011;6583;42.632;23.298;2022-08-11T06:53:00;4.97;;;4.47;;
13032;SDS011;6583;42.632;23.298;2022-08-11T06:55:29;4.90;;;4.50;;
13032;SDS011;6583;42.632;23.298;2022-08-11T06:58:17;5.25;;;4.85;;
13032;SDS011;6583;42.632;23.298;2022-08-11T07:01:09;5.78;;;5.20;;
13032;SDS011;6583;42.632;23.298;2022-08-11T07:03:39;5.10;;;4.60;;
13032;SDS011;6583;42.632;23.298;2022-08-11T07:06:15;5.03;;;4.63;;
13032;SDS011;6583;42.632;23.298;2022-08-11T07:09:07;5.05;;;4.57;;
13032;SDS011;6583;42.632;23.298;2022-08-11T07:12:14;5.00;;;4.50;;
13032;SDS011;6583;42.632;23.298;2022-08-11T07:15:17;8.57;;;5.18;;
13032;SDS011;6583;42.632;23.298;2022-08-11T07:18:04;5.00;;;4.50;;
13032;SDS011;6583;42.632;23.298;2022-08-11T07:20:50;5.22;;;4.72;;
13032;SDS011;6583;42.632;23.298;2022-08-11T07:23:41;7.22;;;4.97;;
13032;SDS011;6583;42.632;23.298;2022-08-11T07:26:26;5.00;;;4.60;;
13032;SDS011;6583;42.632;23.298;2022-08-11T07:29:11;5.70;;;4.72;;
13032;SDS011;6583;42.632;23.298;2022-08-11T07:31:42;4.97;;;4.32;;
13032;SDS011;6583;42.632;23.298;2022-08-11T07:34:16;7.47;;;4.90;;
13032;SDS011;6583;42.632;23.298;2022-08-11T07:36:48;4.75;;;4.35;;
13032;SDS011;6583;42.632;23.298;2022-08-11T07:39:18;5.32;;;4.75;;
13032;SDS011;6583;42.632;23.298;2022-08-11T07:41:47;5.03;;;4.63;;
13032;SDS011;6583;42.632;23.298;2022-08-11T07:44:16;5.28;;;4.78;;
13032;SDS011;6583;42.632;23.298;2022-08-11T07:46:43;4.82;;;4.43;;
13032;SDS011;6583;42.632;23.298;2022-08-11T07:49:32;4.80;;;4.40;;
13032;SDS011;6583;42.632;23.298;2022-08-11T07:52:18;4.63;;;4.22;;
13032;SDS011;6583;42.632;23.298;2022-08-11T07:54:59;4.60;;;4.20;;
13032;SDS011;6583;42.632;23.298;2022-08-11T07:57:27;6.35;;;5.18;;
13032;SDS011;6583;42.632;23.298;2022-08-11T08:00:13;5.63;;;4.70;;
13032;SDS011;6583;42.632;23.298;2022-08-11T08:02:58;6.85;;;4.47;;
13032;SDS011;6583;42.632;23.298;2022-08-11T08:05:46;5.32;;;4.82;;
13032;SDS011;6583;42.632;23.298;2022-08-11T08:08:32;4.75;;;4.32;;
13032;SDS011;6583;42.632;23.298;2022-08-11T08:11:18;5.45;;;4.95;;
13032;SDS011;6583;42.632;23.298;2022-08-11T08:14:04;5.13;;;4.28;;
13032;SDS011;6583;42.632;23.298;2022-08-11T08:16:48;4.90;;;4.43;;
13032;SDS011;6583;42.632;23.298;2022-08-11T08:19:34;4.68;;;4.28;;
13032;SDS011;6583;42.632;23.298;2022-08-11T08:22:02;4.80;;;4.40;;
13032;SDS011;6583;42.632;23.298;2022-08-11T08:24:29;5.15;;;4.75;;
13032;SDS011;6583;42.632;23.298;2022-08-11T08:26:57;4.60;;;4.20;;
13032;SDS011;6583;42.632;23.298;2022-08-11T08:29:25;5.15;;;4.65;;
13032;SDS011;6583;42.632;23.298;2022-08-11T08:32:11;5.05;;;4.57;;
13032;SDS011;6583;42.632;23.298;2022-08-11T08:34:40;4.78;;;4.18;;
13032;SDS011;6583;42.632;23.298;2022-08-11T08:37:09;4.53;;;4.13;;
13032;SDS011;6583;42.632;23.298;2022-08-11T08:39:36;5.03;;;4.63;;
13032;SDS011;6583;42.632;23.298;2022-08-11T08:42:05;5.10;;;4.60;;
13032;SDS011;6583;42.632;23.298;2022-08-11T08:44:34;5.00;;;4.60;;
13032;SDS011;6583;42.632;23.298;2022-08-11T08:47:05;5.07;;;4.55;;
13032;SDS011;6583;42.632;23.298;2022-08-11T08:49:35;4.93;;;4.53;;
13032;SDS011;6583;42.632;23.298;2022-08-11T08:52:06;4.90;;;4.50;;
13032;SDS011;6583;42.632;23.298;2022-08-11T08:54:38;5.18;;;4.78;;
13032;SDS011;6583;42.632;23.298;2022-08-11T08:57:08;4.95;;;4.50;;
13032;SDS011;6583;42.632;23.298;2022-08-11T08:59:36;4.75;;;4.35;;
13032;SDS011;6583;42.632;23.298;2022-08-11T09:02:07;5.20;;;4.80;;
13032;SDS011;6583;42.632;23.298;2022-08-11T09:04:37;4.65;;;4.25;;
13032;SDS011;6583;42.632;23.298;2022-08-11T09:07:06;4.40;;;4.10;;
13032;SDS011;6583;42.632;23.298;2022-08-11T09:09:38;4.65;;;4.25;;
13032;SDS011;6583;42.632;23.298;2022-08-11T09:12:08;4.47;;;4.07;;
13032;SDS011;6583;42.632;23.298;2022-08-11T09:14:37;4.45;;;3.80;;
13032;SDS011;6583;42.632;23.298;2022-08-11T09:17:23;4.30;;;4.00;;
13032;SDS011;6583;42.632;23.298;2022-08-11T09:19:53;5.82;;;4.50;;
13032;SDS011;6583;42.632;23.298;2022-08-11T09:22:24;4.28;;;3.97;;
13032;SDS011;6583;42.632;23.298;2022-08-11T09:25:11;4.55;;;4.15;;
13032;SDS011;6583;42.632;23.298;2022-08-11T09:27:55;4.10;;;3.80;;
13032;SDS011;6583;42.632;23.298;2022-08-11T09:30:23;3.70;;;3.40;;
13032;SDS011;6583;42.632;23.298;2022-08-11T09:32:51;4.78;;;4.38;;
13032;SDS011;6583;42.632;23.298;2022-08-11T09:35:22;5.10;;;4.60;;
13032;SDS011;6583;42.632;23.298;2022-08-11T09:37:50;4.43;;;4.13;;
13032;SDS011;6583;42.632;23.298;2022-08-11T09:40:36;4.45;;;4.05;;
13032;SDS011;6583;42.632;23.298;2022-08-11T09:43:05;4.00;;;3.70;;
13032;SDS011;6583;42.632;23.298;2022-08-11T09:45:52;4.70;;;4.30;;
13032;SDS011;6583;42.632;23.298;2022-08-11T09:48:22;5.10;;;4.47;;
13032;SDS011;6583;42.632;23.298;2022-08-11T09:50:51;5.22;;;4.40;;
13032;SDS011;6583;42.632;23.298;2022-08-11T09:53:20;4.72;;;4.32;;
13032;SDS011;6583;42.632;23.298;2022-08-11T09:55:49;5.03;;;4.53;;
13032;SDS011;6583;42.632;23.298;2022-08-11T09:58:16;5.05;;;4.70;;
13032;SDS011;6583;42.632;23.298;2022-08-11T10:00:43;5.88;;;4.70;;
13032;SDS011;6583;42.632;23.298;2022-08-11T10:03:14;3.85;;;3.55;;
13032;SDS011;6583;42.632;23.298;2022-08-11T10:05:43;4.05;;;3.72;;
13032;SDS011;6583;42.632;23.298;2022-08-11T10:08:38;4.15;;;3.78;;
13032;SDS011;6583;42.632;23.298;2022-08-11T10:11:08;4.53;;;4.13;;
13032;SDS011;6583;42.632;23.298;2022-08-11T10:13:40;5.65;;;4.10;;
13032;SDS011;6583;42.632;23.298;2022-08-11T10:16:24;4.88;;;4.47;;
13032;SDS011;6583;42.632;23.298;2022-08-11T10:18:53;40.92;;;6.40;;
13032;SDS011;6583;42.632;23.298;2022-08-11T10:21:25;7.47;;;4.47;;
13032;SDS011;6583;42.632;23.298;2022-08-11T10:23:54;5.15;;;4.30;;
13032;SDS011;6583;42.632;23.298;2022-08-11T10:26:42;5.65;;;4.80;;
13032;SDS011;6583;42.632;23.298;2022-08-11T10:29:18;5.50;;;4.88;;
13032;SDS011;6583;42.632;23.298;2022-08-11T10:32:05;5.15;;;4.65;;
13032;SDS011;6583;42.632;23.298;2022-08-11T10:34:50;5.07;;;4.55;;
13032;SDS011;6583;42.632;23.298;2022-08-11T10:37:19;5.30;;;4.85;;
13032;SDS011;6583;42.632;23.298;2022-08-11T10:39:47;5.63;;;5.10;;
13032;SDS011;6583;42.632;23.298;2022-08-11T10:42:16;4.97;;;4.57;;
13032;SDS011;6583;42.632;23.298;2022-08-11T10:45:02;5.57;;;5.07;;
13032;SDS011;6583;42.632;23.298;2022-08-11T10:47:53;5.22;;;4.78;;
13032;SDS011;6583;42.632;23.298;2022-08-11T10:50:20;4.75;;;4.30;;
13032;SDS011;6583;42.632;23.298;2022-08-11T10:53:05;5.22;;;4.50;;
13032;SDS011;6583;42.632;23.298;2022-08-11T10:55:50;4.97;;;4.57;;
13032;SDS011;6583;42.632;23.298;2022-08-11T10:58:36;4.75;;;4.35;;
13032;SDS011;6583;42.632;23.298;2022-08-11T11:01:12;5.20;;;4.80;;
13032;SDS011;6583;42.632;23.298;2022-08-11T11:03:40;5.07;;;4.60;;
13032;SDS011;6583;42.632;23.298;2022-08-11T11:06:09;5.05;;;4.60;;
13032;SDS011;6583;42.632;23.298;2022-08-11T11:08:50;4.72;;;4.32;;
13032;SDS011;6583;42.632;23.298;2022-08-11T11:11:22;4.72;;;4.32;;
13032;SDS011;6583;42.632;23.298;2022-08-11T11:14:14;4.63;;;4.30;;
13032;SDS011;6583;42.632;23.298;2022-08-11T11:17:00;4.82;;;4.28;;
13032;SDS011;6583;42.632;23.298;2022-08-11T11:19:45;5.13;;;4.70;;
13032;SDS011;6583;42.632;23.298;2022-08-11T11:22:15;4.78;;;4.30;;
13032;SDS011;6583;42.632;23.298;2022-08-11T11:25:02;4.32;;;3.95;;
13032;SDS011;6583;42.632;23.298;2022-08-11T11:27:35;5.05;;;4.57;;
13032;SDS011;6583;42.632;23.298;2022-08-11T11:30:13;4.65;;;4.13;;
13032;SDS011;6583;42.632;23.298;2022-08-11T11:32:43;4.97;;;4.57;;
13032;SDS011;6583;42.632;23.298;2022-08-11T11:38:10;4.75;;;4.35;;
13032;SDS011;6583;42.632;23.298;2022-08-11T11:40:37;4.72;;;4.32;;
13032;SDS011;6583;42.632;23.298;2022-08-11T11:43:05;4.32;;;3.97;;
13032;SDS011;6583;42.632;23.298;2022-08-11T11:45:34;3.92;;;3.63;;
13032;SDS011;6583;42.632;23.298;2022-08-11T11:48:01;4.47;;;4.18;;
13032;SDS011;6583;42.632;23.298;2022-08-11T11:50:29;6.55;;;4.40;;
13032;SDS011;6583;42.632;23.298;2022-08-11T11:52:59;4.80;;;4.30;;
13032;SDS011;6583;42.632;23.298;2022-08-11T11:55:27;5.25;;;4.22;;
13032;SDS011;6583;42.632;23.298;2022-08-11T11:57:55;4.60;;;4.20;;
13032;SDS011;6583;42.632;23.298;2022-08-11T12:00:42;4.80;;;4.40;;
13032;SDS011;6583;42.632;23.298;2022-08-11T12:03:27;4.25;;;3.88;;
13032;SDS011;6583;42.632;23.298;2022-08-11T12:05:55;4.32;;;3.92;;
13032;SDS011;6583;42.632;23.298;2022-08-11T12:08:23;4.07;;;3.78;;
13032;SDS011;6583;42.632;23.298;2022-08-11T12:10:52;4.43;;;4.13;;
13032;SDS011;6583;42.632;23.298;2022-08-11T12:13:41;4.60;;;4.28;;
13032;SDS011;6583;42.632;23.298;2022-08-11T12:16:12;5.20;;;4.38;;
13032;SDS011;6583;42.632;23.298;2022-08-11T12:18:40;4.53;;;4.22;;
13032;SDS011;6583;42.632;23.298;2022-08-11T12:21:08;5.07;;;4.65;;
13032;SDS011;6583;42.632;23.298;2022-08-11T12:23:36;5.72;;;4.90;;
13032;SDS011;6583;42.632;23.298;2022-08-11T12:26:22;4.60;;;4.20;;
13032;SDS011;6583;42.632;23.298;2022-08-11T12:29:19;4.40;;;4.00;;
13032;SDS011;6583;42.632;23.298;2022-08-11T12:31:52;4.88;;;4.15;;
13032;SDS011;6583;42.632;23.298;2022-08-11T12:34:24;4.70;;;4.30;;
13032;SDS011;6583;42.632;23.298;2022-08-11T12:36:53;5.07;;;4.68;;
13032;SDS011;6583;42.632;23.298;2022-08-11T12:39:24;4.75;;;4.35;;
13032;SDS011;6583;42.632;23.298;2022-08-11T12:42:06;5.10;;;4.60;;
13032;SDS011;6583;42.632;23.298;2022-08-11T12:44:52;4.88;;;4.47;;
13032;SDS011;6583;42.632;23.298;2022-08-11T12:47:39;4.90;;;4.50;;
13032;SDS011;6583;42.632;23.298;2022-08-11T12:50:23;5.15;;;4.75;;
13032;SDS011;6583;42.632;23.298;2022-08-11T12:53:08;5.00;;;4.50;;
13032;SDS011;6583;42.632;23.298;2022-08-11T12:55:37;5.07;;;4.68;;
13032;SDS011;6583;42.632;23.298;2022-08-11T12:58:26;5.20;;;4.38;;
13032;SDS011;6583;42.632;23.298;2022-08-11T13:00:53;5.43;;;4.20;;
13032;SDS011;6583;42.632;23.298;2022-08-11T13:03:40;4.15;;;3.72;;
13032;SDS011;6583;42.632;23.298;2022-08-11T13:06:25;5.93;;;3.90;;
13032;SDS011;6583;42.632;23.298;2022-08-11T13:08:53;4.07;;;3.70;;
13032;SDS011;6583;42.632;23.298;2022-08-11T13:11:22;4.38;;;3.90;;
13032;SDS011;6583;42.632;23.298;2022-08-11T13:14:08;4.30;;;3.75;;
13032;SDS011;6583;42.632;23.298;2022-08-11T13:16:34;4.25;;;3.70;;
13032;SDS011;6583;42.632;23.298;2022-08-11T13:19:18;4.80;;;4.38;;
13032;SDS011;6583;42.632;23.298;2022-08-11T13:21:47;3.88;;;3.53;;
13032;SDS011;6583;42.632;23.298;2022-08-11T13:24:15;4.40;;;4.00;;
13032;SDS011;6583;42.632;23.298;2022-08-11T13:26:43;4.10;;;3.80;;
13032;SDS011;6583;42.632;23.298;2022-08-11T13:29:11;4.40;;;4.00;;
13032;SDS011;6583;42.632;23.298;2022-08-11T13:31:39;4.22;;;3.92;;
13032;SDS011;6583;42.632;23.298;2022-08-11T13:34:06;5.05;;;3.90;;
13032;SDS011;6583;42.632;23.298;2022-08-11T13:36:35;4.25;;;3.85;;
13032;SDS011;6583;42.632;23.298;2022-08-11T13:39:02;4.78;;;4.20;;
13032;SDS011;6583;42.632;23.298;2022-08-11T13:41:29;4.03;;;3.72;;
13032;SDS011;6583;42.632;23.298;2022-08-11T13:44:06;3.90;;;3.60;;
13032;SDS011;6583;42.632;23.298;2022-08-11T13:46:34;4.20;;;3.80;;
13032;SDS011;6583;42.632;23.298;2022-08-11T13:49:01;4.50;;;4.10;;
13032;SDS011;6583;42.632;23.298;2022-08-11T13:51:30;4.90;;;3.90;;
13032;SDS011;6583;42.632;23.298;2022-08-11T13:54:02;5.57;;;4.07;;
13032;SDS011;6583;42.632;23.298;2022-08-11T13:56:31;4.13;;;3.78;;
13032;SDS011;6583;42.632;23.298;2022-08-11T13:59:00;4.45;;;4.13;;
13032;SDS011;6583;42.632;23.298;2022-08-11T14:01:30;5.88;;;5.28;;
13032;SDS011;6583;42.632;23.298;2022-08-11T14:04:02;4.63;;;4.22;;
13032;SDS011;6583;42.632;23.298;2022-08-11T14:06:33;4.80;;;4.40;;
13032;SDS011;6583;42.632;23.298;2022-08-11T14:09:03;4.32;;;3.92;;
13032;SDS011;6583;42.632;23.298;2022-08-11T14:11:33;4.15;;;3.85;;
13032;SDS011;6583;42.632;23.298;2022-08-11T14:14:20;3.90;;;3.60;;
13032;SDS011;6583;42.632;23.298;2022-08-11T14:16:51;4.00;;;3.70;;
13032;SDS011;6583;42.632;23.298;2022-08-11T14:19:21;4.18;;;3.88;;
13032;SDS011;6583;42.632;23.298;2022-08-11T14:21:51;5.10;;;4.03;;
13032;SDS011;6583;42.632;23.298;2022-08-11T14:24:35;4.30;;;3.90;;
13032;SDS011;6583;42.632;23.298;2022-08-11T14:27:04;4.78;;;4.25;;
13032;SDS011;6583;42.632;23.298;2022-08-11T14:29:32;4.88;;;4.00;;
13032;SDS011;6583;42.632;23.298;2022-08-11T14:32:03;4.15;;;3.85;;
13032;SDS011;6583;42.632;23.298;2022-08-11T14:34:31;3.95;;;3.65;;
13032;SDS011;6583;42.632;23.298;2022-08-11T14:37:00;4.13;;;3.80;;
13032;SDS011;6583;42.632;23.298;2022-08-11T14:39:31;4.43;;;4.03;;
13032;SDS011;6583;42.632;23.298;2022-08-11T14:42:02;4.15;;;3.58;;
13032;SDS011;6583;42.632;23.298;2022-08-11T14:44:49;4.20;;;3.85;;
13032;SDS011;6583;42.632;23.298;2022-08-11T14:47:36;4.32;;;3.88;;
13032;SDS011;6583;42.632;23.298;2022-08-11T14:50:05;4.82;;;3.90;;
13032;SDS011;6583;42.632;23.298;2022-08-11T14:52:33;3.90;;;3.60;;
13032;SDS011;6583;42.632;23.298;2022-08-11T14:55:01;4.53;;;4.07;;
13032;SDS011;6583;42.632;23.298;2022-08-11T14:57:48;3.90;;;3.60;;
13032;SDS011;6583;42.632;23.298;2022-08-11T15:00:17;4.40;;;4.10;;
13032;SDS011;6583;42.632;23.298;2022-08-11T15:02:44;5.03;;;3.88;;
13032;SDS011;6583;42.632;23.298;2022-08-11T15:05:30;4.32;;;3.95;;
13032;SDS011;6583;42.632;23.298;2022-08-11T15:07:58;5.40;;;3.90;;
13032;SDS011;6583;42.632;23.298;2022-08-11T15:10:26;4.38;;;3.97;;
13032;SDS011;6583;42.632;23.298;2022-08-11T15:12:55;4.68;;;4.28;;
13032;SDS011;6583;42.632;23.298;2022-08-11T15:15:23;3.88;;;3.58;;
13032;SDS011;6583;42.632;23.298;2022-08-11T15:18:09;3.90;;;3.60;;
13032;SDS011;6583;42.632;23.298;2022-08-11T15:20:39;4.32;;;3.92;;
13032;SDS011;6583;42.632;23.298;2022-08-11T15:23:23;4.57;;;4.18;;
13032;SDS011;6583;42.632;23.298;2022-08-11T15:26:09;4.35;;;4.05;;
13032;SDS011;6583;42.632;23.298;2022-08-11T15:28:41;4.60;;;4.20;;
13032;SDS011;6583;42.632;23.298;2022-08-11T15:31:29;4.70;;;4.30;;
13032;SDS011;6583;42.632;23.298;2022-08-11T15:34:14;5.05;;;4.57;;
13032;SDS011;6583;42.632;23.298;2022-08-11T15:37:03;4.97;;;4.32;;
13032;SDS011;6583;42.632;23.298;2022-08-11T15:39:52;5.10;;;3.60;;
13032;SDS011;6583;42.632;23.298;2022-08-11T15:42:44;4.30;;;3.95;;
13032;SDS011;6583;42.632;23.298;2022-08-11T15:45:49;4.60;;;4.18;;
13032;SDS011;6583;42.632;23.298;2022-08-11T15:48:27;5.80;;;4.40;;
13032;SDS011;6583;42.632;23.298;2022-08-11T15:51:03;4.57;;;4.10;;
13032;SDS011;6583;42.632;23.298;2022-08-11T15:53:38;4.53;;;4.13;;
13032;SDS011;6583;42.632;23.298;2022-08-11T15:56:07;4.28;;;3.97;;
13032;SDS011;6583;42.632;23.298;2022-08-11T15:58:37;5.28;;;4.78;;
13032;SDS011;6583;42.632;23.298;2022-08-11T16:01:25;4.22;;;3.72;;
13032;SDS011;6583;42.632;23.298;2022-08-11T16:04:13;4.65;;;4.10;;
13032;SDS011;6583;42.632;23.298;2022-08-11T16:06:43;4.20;;;3.80;;
13032;SDS011;6583;42.632;23.298;2022-08-11T16:09:13;4.05;;;3.72;;
13032;SDS011;6583;42.632;23.298;2022-08-11T16:11:43;4.03;;;3.72;;
13032;SDS011;6583;42.632;23.298;2022-08-11T16:14:11;3.80;;;3.50;;
13032;SDS011;6583;42.632;23.298;2022-08-11T16:16:59;3.92;;;3.47;;
13032;SDS011;6583;42.632;23.298;2022-08-11T16:19:28;4.30;;;3.70;;
13032;SDS011;6583;42.632;23.298;2022-08-11T16:22:01;4.32;;;3.60;;
13032;SDS011;6583;42.632;23.298;2022-08-11T16:24:31;4.35;;;3.85;;
13032;SDS011;6583;42.632;23.298;2022-08-11T16:27:00;4.60;;;4.05;;
13032;SDS011;6583;42.632;23.298;2022-08-11T16:29:30;4.03;;;3.72;;
13032;SDS011;6583;42.632;23.298;2022-08-11T16:31:58;3.78;;;3.47;;
13032;SDS011;6583;42.632;23.298;2022-08-11T16:34:42;6.40;;;3.60;;
13032;SDS011;6583;42.632;23.298;2022-08-11T16:37:28;5.88;;;3.55;;
13032;SDS011;6583;42.632;23.298;2022-08-11T16:40:15;4.55;;;3.63;;
13032;SDS011;6583;42.632;23.298;2022-08-11T16:42:44;3.80;;;3.33;;
13032;SDS011;6583;42.632;23.298;2022-08-11T16:45:30;3.70;;;3.33;;
13032;SDS011;6583;42.632;23.298;2022-08-11T16:48:16;3.72;;;3.42;;